Time;durP1;ratioP1;P1;durP2;ratioP2;P2;SDS_P1;SDS_P2;PMS_P1;PMS_P2;Temp;Humidity;BMP_temperature;BMP_pressure;BME280_temperature;BME280_humidity;BME280_pressure;Samples;Min_cycle;Max_cycle;Signal;HPM_P1;HPM_P2
2023/01/20 00:00:21;;;;;;;5.15;2.10;;;;;;;;;;5026980;28;20416;-73
2023/01/20 00:02:47;;;;;;;5.40;1.90;;;;;;;;;;5026311;28;20069;-73
2023/01/20 00:05:12;;;;;;;6.97;2.60;;;;;;;;;;5023033;28;20461;-73
2023/01/20 00:07:37;;;;;;;4.57;2.17;;;;;;;;;;5019900;28;20037;-73
2023/01/20 00:10:03;;;;;;;6.40;2.50;;;;;;;;;;5017525;28;20041;-73
2023/01/20 00:12:30;;;;;;;9.15;2.40;;;;;;;;;;5020952;28;20041;-73
2023/01/20 00:14:56;;;;;;;5.47;2.42;;;;;;;;;;5017500;28;20081;-73
2023/01/20 00:17:21;;;;;;;5.63;2.00;;;;;;;;;;5017010;28;20080;-73
2023/01/20 00:19:47;;;;;;;3.85;2.10;;;;;;;;;;5023986;28;20033;-73
2023/01/20 00:22:12;;;;;;;6.93;2.75;;;;;;;;;;5024107;28;20355;-72
2023/01/20 00:24:37;;;;;;;16.65;2.90;;;;;;;;;;5020656;28;20034;-72
2023/01/20 00:27:03;;;;;;;5.18;2.42;;;;;;;;;;5020573;28;20481;-73
2023/01/20 00:29:28;;;;;;;9.23;2.33;;;;;;;;;;5021433;28;20037;-73
2023/01/20 00:31:54;;;;;;;5.53;2.08;;;;;;;;;;5014912;28;20087;-75
2023/01/20 00:34:19;;;;;;;9.15;3.28;;;;;;;;;;5018226;28;20667;-73
2023/01/20 00:36:44;;;;;;;4.88;1.35;;;;;;;;;;5020559;28;20064;-72
2023/01/20 00:39:10;;;;;;;3.50;1.90;;;;;;;;;;5018301;28;20034;-72
2023/01/20 00:41:35;;;;;;;6.70;2.92;;;;;;;;;;5017826;28;20033;-72
2023/01/20 00:44:01;;;;;;;3.75;2.47;;;;;;;;;;5019413;28;20104;-73
2023/01/20 00:46:26;;;;;;;5.25;2.97;;;;;;;;;;5017484;28;20075;-74
2023/01/20 00:48:52;;;;;;;3.65;2.28;;;;;;;;;;5021073;28;20038;-72
2023/01/20 00:51:17;;;;;;;3.95;1.67;;;;;;;;;;5027914;28;20045;-76
2023/01/20 00:53:43;;;;;;;4.07;2.15;;;;;;;;;;5015121;28;20080;-73
2023/01/20 00:56:08;;;;;;;2.42;1.52;;;;;;;;;;5023888;28;20029;-73
2023/01/20 00:58:34;;;;;;;7.68;1.98;;;;;;;;;;5019763;28;20068;-72
2023/01/20 01:00:59;;;;;;;6.28;1.67;;;;;;;;;;5025277;28;20038;-72
2023/01/20 01:03:26;;;;;;;5.07;1.45;;;;;;;;;;5022639;28;20109;-73
2023/01/20 01:05:52;;;;;;;10.63;2.00;;;;;;;;;;5026157;28;20103;-72
2023/01/20 01:08:17;;;;;;;4.43;2.40;;;;;;;;;;5030926;28;20085;-73
2023/01/20 01:10:43;;;;;;;3.85;2.08;;;;;;;;;;5023520;28;20036;-72
2023/01/20 01:13:09;;;;;;;5.70;2.55;;;;;;;;;;5024289;28;20516;-72
2023/01/20 01:15:35;;;;;;;4.35;2.10;;;;;;;;;;5025587;28;20044;-72
2023/01/20 01:18:01;;;;;;;6.10;2.05;;;;;;;;;;5021147;28;20026;-72
2023/01/20 01:20:27;;;;;;;8.10;2.53;;;;;;;;;;5025285;28;20064;-72
2023/01/20 01:22:53;;;;;;;6.38;2.28;;;;;;;;;;5046500;28;20087;-72
2023/01/20 01:25:19;;;;;;;5.88;2.85;;;;;;;;;;5027961;28;20033;-73
2023/01/20 01:27:44;;;;;;;7.93;2.40;;;;;;;;;;5026544;28;20084;-72
2023/01/20 01:30:10;;;;;;;8.95;2.40;;;;;;;;;;5021593;28;20056;-73
2023/01/20 01:32:35;;;;;;;4.00;2.08;;;;;;;;;;5025418;28;20100;-72
2023/01/20 01:35:01;;;;;;;8.20;2.80;;;;;;;;;;5022402;28;20048;-73
2023/01/20 01:37:27;;;;;;;4.30;2.50;;;;;;;;;;5020289;28;20515;-72
2023/01/20 01:39:52;;;;;;;3.78;1.98;;;;;;;;;;5018340;28;20029;-72
2023/01/20 01:42:21;;;;;;;5.68;2.72;;;;;;;;;;5019919;28;20492;-72
2023/01/20 01:45:11;;;;;;;8.77;2.60;;;;;;;;;;5026674;28;20038;-71
2023/01/20 01:47:59;;;;;;;5.82;1.70;;;;;;;;;;5021205;28;20086;-73
2023/01/20 01:50:33;;;;;;;5.82;2.30;;;;;;;;;;5012185;28;20058;-73
2023/01/20 01:52:59;;;;;;;6.43;2.60;;;;;;;;;;5020915;28;20051;-75
2023/01/20 01:55:29;;;;;;;6.10;2.30;;;;;;;;;;5027763;28;20037;-73
2023/01/20 01:57:55;;;;;;;6.80;2.95;;;;;;;;;;5025637;28;20034;-73
2023/01/20 02:00:21;;;;;;;8.45;2.33;;;;;;;;;;5019697;28;20026;-72
2023/01/20 02:02:46;;;;;;;2.55;1.63;;;;;;;;;;5020795;28;20068;-72
2023/01/20 02:05:12;;;;;;;7.50;1.88;;;;;;;;;;5020349;28;20029;-74
2023/01/20 02:07:38;;;;;;;5.57;2.10;;;;;;;;;;5030574;28;20447;-72
2023/01/20 02:10:04;;;;;;;13.90;2.17;;;;;;;;;;5021449;28;20429;-73
2023/01/20 02:12:29;;;;;;;10.25;3.45;;;;;;;;;;5024766;28;20479;-72
2023/01/20 02:14:56;;;;;;;26.08;7.00;;;;;;;;;;5022499;28;20083;-72
2023/01/20 02:17:52;;;;;;;13.23;6.55;;;;;;;;;;5024462;28;20120;-74
2023/01/20 02:20:50;;;;;;;17.08;4.50;;;;;;;;;;5026676;28;20038;-72
2023/01/20 02:23:21;;;;;;;19.70;4.82;;;;;;;;;;5011327;28;20476;-73
2023/01/20 02:25:46;;;;;;;8.73;5.40;;;;;;;;;;5017609;28;20077;-72
2023/01/20 02:28:27;;;;;;;12.80;4.50;;;;;;;;;;5023775;28;20061;-72
2023/01/20 02:30:57;;;;;;;4.78;2.35;;;;;;;;;;5025995;28;20033;-73
2023/01/20 02:33:32;;;;;;;5.32;2.47;;;;;;;;;;5027904;28;20029;-75
2023/01/20 02:36:01;;;;;;;7.85;3.00;;;;;;;;;;5029738;28;20037;-72
2023/01/20 02:38:46;;;;;;;6.28;1.67;;;;;;;;;;5017366;28;20425;-72
2023/01/20 02:41:17;;;;;;;3.60;1.35;;;;;;;;;;5023544;28;20183;-72
2023/01/20 02:43:42;;;;;;;2.85;1.63;;;;;;;;;;5030744;28;20473;-72
2023/01/20 02:46:42;;;;;;;3.85;1.75;;;;;;;;;;5021742;28;20049;-72
2023/01/20 02:49:21;;;;;;;3.08;1.55;;;;;;;;;;5011774;28;20076;-73
2023/01/20 02:52:00;;;;;;;3.35;1.42;;;;;;;;;;5014482;28;20050;-72
2023/01/20 02:54:27;;;;;;;4.53;1.92;;;;;;;;;;5036878;28;20087;-73
2023/01/20 02:56:54;;;;;;;2.40;1.50;;;;;;;;;;5028579;28;20034;-72
2023/01/20 02:59:23;;;;;;;3.08;1.38;;;;;;;;;;5023239;28;20033;-72
2023/01/20 03:01:52;;;;;;;4.25;1.80;;;;;;;;;;5027256;28;20042;-72
2023/01/20 03:04:23;;;;;;;6.75;2.67;;;;;;;;;;5040213;28;20124;-72
2023/01/20 03:06:51;;;;;;;5.10;2.60;;;;;;;;;;5009681;28;20047;-72
2023/01/20 03:09:20;;;;;;;10.18;3.92;;;;;;;;;;5028364;28;20037;-72
2023/01/20 03:11:50;;;;;;;5.07;3.25;;;;;;;;;;5012805;28;20442;-72
2023/01/20 03:14:16;;;;;;;14.40;3.67;;;;;;;;;;5021379;28;20037;-72
2023/01/20 03:16:42;;;;;;;8.13;3.53;;;;;;;;;;5026120;28;20028;-72
2023/01/20 03:19:09;;;;;;;9.90;3.50;;;;;;;;;;5024186;28;20036;-73
2023/01/20 03:21:34;;;;;;;10.25;3.75;;;;;;;;;;4998708;28;20045;-72
2023/01/20 03:24:01;;;;;;;14.35;3.90;;;;;;;;;;5021124;28;20090;-72
2023/01/20 03:26:27;;;;;;;6.38;2.05;;;;;;;;;;5027213;28;20091;-73
2023/01/20 03:28:55;;;;;;;5.28;1.98;;;;;;;;;;5027983;28;20046;-72
2023/01/20 03:31:26;;;;;;;4.20;2.10;;;;;;;;;;5031994;28;20065;-73
2023/01/20 03:33:54;;;;;;;4.35;1.85;;;;;;;;;;5023295;28;20041;-72
2023/01/20 03:36:21;;;;;;;1.80;1.38;;;;;;;;;;5022575;28;20120;-72
2023/01/20 03:38:47;;;;;;;5.15;1.83;;;;;;;;;;5023541;28;20075;-73
2023/01/20 03:41:22;;;;;;;5.05;1.25;;;;;;;;;;5024058;28;20409;-72
2023/01/20 03:44:08;;;;;;;13.43;2.25;;;;;;;;;;5021344;28;20052;-73
2023/01/20 03:47:00;;;;;;;8.70;2.08;;;;;;;;;;5021265;28;20037;-72
2023/01/20 03:49:35;;;;;;;1.65;1.17;;;;;;;;;;5020569;28;20393;-72
2023/01/20 03:52:08;;;;;;;1.70;1.30;;;;;;;;;;5018258;28;20069;-72
2023/01/20 03:54:42;;;;;;;2.47;1.48;;;;;;;;;;5022349;28;20047;-72
2023/01/20 03:57:12;;;;;;;8.10;1.65;;;;;;;;;;5020752;28;20030;-73
2023/01/20 03:59:39;;;;;;;6.78;1.92;;;;;;;;;;5018910;28;20099;-72
2023/01/20 04:02:06;;;;;;;9.30;2.53;;;;;;;;;;5020348;28;20050;-72
2023/01/20 04:04:33;;;;;;;12.05;3.83;;;;;;;;;;5020955;28;20043;-73
2023/01/20 04:06:59;;;;;;;13.45;4.28;;;;;;;;;;5019281;28;20045;-73
2023/01/20 04:09:28;;;;;;;6.80;3.10;;;;;;;;;;5029653;28;20033;-72
2023/01/20 04:11:54;;;;;;;8.40;4.53;;;;;;;;;;5022260;28;20040;-72
2023/01/20 04:14:19;;;;;;;9.48;4.13;;;;;;;;;;5021420;28;20037;-73
2023/01/20 04:16:52;;;;;;;8.45;3.03;;;;;;;;;;5019244;28;20038;-72
2023/01/20 04:19:17;;;;;;;5.30;3.23;;;;;;;;;;5017526;28;20030;-72
2023/01/20 04:21:52;;;;;;;6.85;1.52;;;;;;;;;;5025105;28;20082;-72
2023/01/20 04:24:24;;;;;;;;;;;;;;;;;;5017559;28;20064;-72
2023/01/20 04:26:49;;;;;;;8.80;1.67;;;;;;;;;;5021506;28;19924;-72
2023/01/20 04:29:15;;;;;;;1.70;1.23;;;;;;;;;;5017429;28;20389;-73
2023/01/20 04:31:40;;;;;;;2.30;1.77;;;;;;;;;;5022141;28;20037;-73
2023/01/20 04:34:06;;;;;;;4.40;1.85;;;;;;;;;;5027923;28;20470;-72
2023/01/20 04:36:32;;;;;;;2.25;1.13;;;;;;;;;;5030099;28;20036;-72
2023/01/20 04:38:57;;;;;;;3.15;1.38;;;;;;;;;;5022465;28;20033;-72
2023/01/20 04:41:22;;;;;;;2.22;1.05;;;;;;;;;;5025268;28;20033;-72
2023/01/20 04:43:48;;;;;;;8.32;0.95;;;;;;;;;;5024424;28;20036;-74
2023/01/20 04:46:14;;;;;;;3.15;1.60;;;;;;;;;;5023094;28;20417;-73
2023/01/20 04:48:40;;;;;;;1.90;0.77;;;;;;;;;;5023252;28;20041;-74
2023/01/20 04:51:06;;;;;;;5.47;1.20;;;;;;;;;;5019814;28;20132;-72
2023/01/20 04:53:32;;;;;;;3.65;1.65;;;;;;;;;;5020920;28;20033;-73
2023/01/20 04:55:58;;;;;;;2.63;1.45;;;;;;;;;;5037361;28;20042;-73
2023/01/20 04:58:23;;;;;;;4.78;2.00;;;;;;;;;;5024451;28;20387;-73
2023/01/20 05:00:49;;;;;;;9.88;2.33;;;;;;;;;;5020928;28;20034;-73
2023/01/20 05:03:14;;;;;;;8.65;3.83;;;;;;;;;;5023375;28;20038;-72
2023/01/20 05:05:40;;;;;;;13.43;5.38;;;;;;;;;;5022767;28;20034;-72
2023/01/20 05:08:05;;;;;;;13.65;5.10;;;;;;;;;;5028908;28;20462;-73
2023/01/20 05:10:31;;;;;;;14.48;3.78;;;;;;;;;;5024984;28;20042;-72
2023/01/20 05:12:57;;;;;;;6.95;2.85;;;;;;;;;;5024597;28;20504;-72
2023/01/20 05:15:23;;;;;;;4.03;1.73;;;;;;;;;;5024139;28;20418;-73
2023/01/20 05:17:48;;;;;;;6.43;2.15;;;;;;;;;;5018629;28;20037;-71
2023/01/20 05:20:14;;;;;;;1.58;0.77;;;;;;;;;;5021662;28;20038;-72
2023/01/20 05:22:39;;;;;;;6.63;1.10;;;;;;;;;;5021799;28;20489;-72
2023/01/20 05:25:05;;;;;;;5.45;1.80;;;;;;;;;;5024840;28;20128;-73
2023/01/20 05:27:33;;;;;;;6.22;1.20;;;;;;;;;;5017299;28;20087;-72
2023/01/20 05:29:58;;;;;;;2.88;1.05;;;;;;;;;;5022089;28;20041;-72
2023/01/20 05:32:24;;;;;;;3.05;1.38;;;;;;;;;;5021863;28;20097;-73
2023/01/20 05:34:49;;;;;;;2.95;1.20;;;;;;;;;;5022080;28;20029;-72
2023/01/20 05:37:18;;;;;;;2.53;1.42;;;;;;;;;;5029274;28;20052;-72
2023/01/20 05:39:43;;;;;;;7.90;1.60;;;;;;;;;;5022997;28;20114;-72
2023/01/20 05:42:09;;;;;;;2.97;1.20;;;;;;;;;;5024295;28;20080;-72
2023/01/20 05:44:34;;;;;;;3.70;1.48;;;;;;;;;;5022768;28;20049;-72
2023/01/20 05:47:00;;;;;;;2.55;1.25;;;;;;;;;;5021873;28;20041;-72
2023/01/20 05:49:26;;;;;;;4.97;1.88;;;;;;;;;;5021625;28;20077;-73
2023/01/20 05:51:51;;;;;;;3.67;1.25;;;;;;;;;;5023970;28;20437;-72
2023/01/20 05:54:17;;;;;;;2.88;1.48;;;;;;;;;;5024608;28;20116;-74
2023/01/20 05:56:43;;;;;;;3.63;1.48;;;;;;;;;;5024603;28;20033;-72
2023/01/20 05:59:08;;;;;;;14.35;1.88;;;;;;;;;;5019253;28;20113;-72
2023/01/20 06:01:34;;;;;;;2.42;1.42;;;;;;;;;;5030005;28;20050;-72
2023/01/20 06:03:59;;;;;;;4.00;1.00;;;;;;;;;;5025479;28;20030;-72
2023/01/20 06:06:25;;;;;;;5.72;1.70;;;;;;;;;;5024681;28;20069;-72
2023/01/20 06:08:51;;;;;;;1.77;1.20;;;;;;;;;;5023100;28;20034;-72
2023/01/20 06:11:17;;;;;;;5.28;2.25;;;;;;;;;;5023080;28;20050;-73
2023/01/20 06:13:42;;;;;;;6.60;1.67;;;;;;;;;;5024926;28;20040;-72
2023/01/20 06:16:08;;;;;;;3.35;1.33;;;;;;;;;;5018789;28;20061;-72
2023/01/20 06:18:33;;;;;;;4.20;1.73;;;;;;;;;;5019390;28;20061;-72
2023/01/20 06:20:59;;;;;;;2.97;1.50;;;;;;;;;;5023535;28;20022;-72
2023/01/20 06:23:25;;;;;;;1.38;1.02;;;;;;;;;;5019752;28;20046;-72
2023/01/20 06:26:02;;;;;;;1.08;0.80;;;;;;;;;;5027190;28;20439;-72
2023/01/20 06:28:27;;;;;;;1.98;1.15;;;;;;;;;;5022183;28;20125;-73
2023/01/20 06:31:00;;;;;;;2.17;1.30;;;;;;;;;;5015329;28;20112;-72
2023/01/20 06:33:26;;;;;;;4.57;1.33;;;;;;;;;;5001343;28;20076;-72
2023/01/20 06:35:55;;;;;;;1.63;1.33;;;;;;;;;;5025005;28;20432;-71
2023/01/20 06:38:25;;;;;;;2.05;1.20;;;;;;;;;;5044300;28;20470;-73
2023/01/20 06:40:55;;;;;;;3.13;1.40;;;;;;;;;;5024262;28;20128;-71
2023/01/20 06:43:21;;;;;;;3.15;1.33;;;;;;;;;;5020563;28;20030;-72
2023/01/20 06:45:46;;;;;;;2.03;1.35;;;;;;;;;;5020228;28;20025;-72
2023/01/20 06:48:11;;;;;;;1.48;0.85;;;;;;;;;;5014201;28;20029;-72
2023/01/20 06:50:37;;;;;;;4.45;1.52;;;;;;;;;;5018414;28;20062;-72
2023/01/20 06:53:02;;;;;;;2.05;0.75;;;;;;;;;;5024132;28;20160;-72
2023/01/20 06:55:28;;;;;;;0.77;0.70;;;;;;;;;;5028135;28;20037;-72
2023/01/20 06:57:53;;;;;;;2.30;0.88;;;;;;;;;;5022413;28;20040;-72
2023/01/20 07:00:19;;;;;;;4.88;1.10;;;;;;;;;;5022815;28;20195;-72
2023/01/20 07:02:44;;;;;;;1.52;0.85;;;;;;;;;;5019556;28;20042;-72
2023/01/20 07:05:09;;;;;;;2.17;1.33;;;;;;;;;;5024557;28;20038;-74
2023/01/20 07:07:35;;;;;;;2.28;0.77;;;;;;;;;;5021052;28;20463;-72
2023/01/20 07:10:01;;;;;;;1.55;0.77;;;;;;;;;;5028666;28;20048;-72
2023/01/20 07:12:26;;;;;;;3.55;1.60;;;;;;;;;;5022813;28;20482;-72
2023/01/20 07:14:52;;;;;;;1.88;0.98;;;;;;;;;;5024826;28;20036;-72
2023/01/20 07:17:17;;;;;;;1.80;1.20;;;;;;;;;;5027708;28;20025;-72
2023/01/20 07:19:43;;;;;;;4.03;1.02;;;;;;;;;;5027333;28;20033;-72
2023/01/20 07:22:08;;;;;;;3.25;0.93;;;;;;;;;;5017610;28;20461;-73
2023/01/20 07:24:34;;;;;;;2.28;1.52;;;;;;;;;;5028382;28;20112;-72
2023/01/20 07:26:59;;;;;;;5.28;1.55;;;;;;;;;;5019570;28;20041;-72
2023/01/20 07:29:25;;;;;;;2.90;1.40;;;;;;;;;;5023152;28;20084;-72
2023/01/20 07:31:51;;;;;;;4.55;1.63;;;;;;;;;;5022030;28;20033;-72
2023/01/20 07:34:16;;;;;;;8.63;1.10;;;;;;;;;;5020762;28;20030;-71
2023/01/20 07:36:42;;;;;;;3.25;1.08;;;;;;;;;;5024866;28;20037;-73
2023/01/20 07:39:09;;;;;;;2.70;1.30;;;;;;;;;;5020136;28;20041;-73
2023/01/20 07:41:35;;;;;;;6.05;1.50;;;;;;;;;;5025174;28;20033;-72
2023/01/20 07:44:00;;;;;;;3.08;1.02;;;;;;;;;;5026058;28;20041;-72
2023/01/20 07:46:25;;;;;;;1.73;1.00;;;;;;;;;;5014433;28;20052;-73
2023/01/20 07:48:51;;;;;;;1.38;1.13;;;;;;;;;;5025202;28;20033;-71
2023/01/20 07:51:16;;;;;;;8.38;1.58;;;;;;;;;;5023683;28;20470;-72
2023/01/20 07:53:46;;;;;;;2.50;0.90;;;;;;;;;;5013752;28;20038;-72
2023/01/20 07:56:25;;;;;;;4.45;1.10;;;;;;;;;;5016319;28;20053;-72
2023/01/20 07:58:51;;;;;;;1.90;1.00;;;;;;;;;;5031221;28;20033;-72
2023/01/20 08:01:24;;;;;;;1.88;1.02;;;;;;;;;;5018429;28;20037;-71
2023/01/20 08:03:50;;;;;;;1.13;0.80;;;;;;;;;;5019205;28;20026;-71
2023/01/20 08:06:18;;;;;;;1.95;1.30;;;;;;;;;;5019888;28;20046;-72
2023/01/20 08:08:44;;;;;;;3.60;1.15;;;;;;;;;;5022046;28;20406;-72
2023/01/20 08:11:12;;;;;;;1.13;0.98;;;;;;;;;;5026346;28;20052;-72
2023/01/20 08:13:38;;;;;;;0.75;0.52;;;;;;;;;;5017257;28;20573;-71
2023/01/20 08:16:06;;;;;;;2.58;1.23;;;;;;;;;;5039606;28;20117;-72
2023/01/20 08:18:32;;;;;;;1.27;0.90;;;;;;;;;;5002515;28;20381;-71
2023/01/20 08:20:58;;;;;;;0.68;0.60;;;;;;;;;;5020447;28;20042;-71
2023/01/20 08:23:24;;;;;;;1.48;1.05;;;;;;;;;;5019217;28;20065;-72
2023/01/20 08:25:57;;;;;;;1.40;0.70;;;;;;;;;;5021099;28;20068;-71
2023/01/20 08:28:22;;;;;;;2.55;1.42;;;;;;;;;;5014784;28;20546;-72
2023/01/20 08:30:48;;;;;;;4.68;1.05;;;;;;;;;;5023628;28;20046;-72
2023/01/20 08:33:13;;;;;;;1.70;1.00;;;;;;;;;;5017143;28;20030;-71
2023/01/20 08:35:38;;;;;;;4.97;1.70;;;;;;;;;;5016078;28;20038;-72
2023/01/20 08:38:05;;;;;;;2.95;1.65;;;;;;;;;;5016367;28;20045;-72
2023/01/20 08:40:31;;;;;;;5.47;1.73;;;;;;;;;;5015440;28;20386;-71
2023/01/20 08:42:56;;;;;;;3.08;1.98;;;;;;;;;;5016425;28;20030;-72
2023/01/20 08:45:22;;;;;;;2.50;1.63;;;;;;;;;;5013503;28;20034;-72
2023/01/20 08:47:48;;;;;;;3.40;1.60;;;;;;;;;;5019009;28;20032;-72
2023/01/20 08:50:14;;;;;;;6.47;1.88;;;;;;;;;;5017472;28;20050;-72
2023/01/20 08:52:40;;;;;;;3.67;1.67;;;;;;;;;;5024779;28;20037;-72
2023/01/20 08:55:06;;;;;;;7.00;3.03;;;;;;;;;;5018920;28;20018;-73
2023/01/20 08:57:31;;;;;;;4.72;2.08;;;;;;;;;;5021730;28;20060;-72
2023/01/20 08:59:57;;;;;;;9.07;2.75;;;;;;;;;;5023064;28;20065;-72
2023/01/20 09:02:23;;;;;;;7.13;3.17;;;;;;;;;;5017265;28;20379;-73
2023/01/20 09:04:49;;;;;;;7.82;2.90;;;;;;;;;;5024792;28;20049;-72
2023/01/20 09:07:16;;;;;;;14.63;5.53;;;;;;;;;;5016045;28;20498;-71
2023/01/20 09:09:41;;;;;;;13.95;5.00;;;;;;;;;;5021547;28;20041;-71
2023/01/20 09:12:07;;;;;;;13.90;6.32;;;;;;;;;;5018589;28;20037;-72
2023/01/20 09:14:32;;;;;;;29.85;11.70;;;;;;;;;;5026124;28;20116;-71
2023/01/20 09:16:59;;;;;;;11.18;5.30;;;;;;;;;;5026782;28;20061;-71
2023/01/20 09:19:24;;;;;;;10.05;5.07;;;;;;;;;;5023565;28;20034;-74
2023/01/20 09:21:50;;;;;;;26.52;12.75;;;;;;;;;;5025852;28;20049;-71
2023/01/20 09:24:15;;;;;;;10.70;5.97;;;;;;;;;;5018506;28;20422;-71
2023/01/20 09:26:41;;;;;;;37.78;17.45;;;;;;;;;;5023259;28;20044;-72
2023/01/20 09:29:12;;;;;;;48.72;28.52;;;;;;;;;;5025047;28;20381;-72
2023/01/20 09:31:50;;;;;;;42.65;23.17;;;;;;;;;;5021946;28;20445;-72
2023/01/20 09:34:23;;;;;;;33.10;18.58;;;;;;;;;;5021398;28;20113;-72
2023/01/20 09:45:37;;;;;;;9.45;5.20;;;;;;;;;;5026883;28;20163;-72
2023/01/20 09:48:14;;;;;;;25.60;9.48;;;;;;;;;;5032282;28;20347;-72
2023/01/20 09:53:55;;;;;;;8.07;3.00;;;;;;;;;;5027641;28;20095;-72
2023/01/20 09:56:21;;;;;;;;;;;;;;;;;;5019471;28;20034;-72
2023/01/20 09:59:05;;;;;;;4.82;1.83;;;;;;;;;;5016236;28;19918;-72
2023/01/20 10:01:38;;;;;;;5.00;2.10;;;;;;;;;;5021618;28;20034;-73
2023/01/20 10:04:13;;;;;;;4.72;1.98;;;;;;;;;;5015482;28;20038;-74
2023/01/20 10:07:02;;;;;;;18.02;8.70;;;;;;;;;;5015365;28;20042;-72
2023/01/20 10:09:32;;;;;;;8.90;4.30;;;;;;;;;;5043422;28;20045;-73
2023/01/20 10:12:05;;;;;;;4.60;2.00;;;;;;;;;;5019454;28;20125;-73
2023/01/20 10:14:48;;;;;;;7.68;2.13;;;;;;;;;;5023985;28;20029;-73
2023/01/20 10:17:23;;;;;;;5.32;2.00;;;;;;;;;;5028602;28;20084;-73
2023/01/20 10:19:55;;;;;;;7.60;4.35;;;;;;;;;;5027025;28;20428;-73
2023/01/20 10:22:36;;;;;;;9.82;3.40;;;;;;;;;;5024637;28;20120;-73
2023/01/20 10:25:07;;;;;;;10.85;3.03;;;;;;;;;;5047261;28;20075;-73
2023/01/20 10:27:36;;;;;;;7.90;2.53;;;;;;;;;;5008586;28;20045;-72
2023/01/20 10:30:09;;;;;;;13.38;2.90;;;;;;;;;;5020736;28;20026;-73
2023/01/20 10:32:40;;;;;;;5.95;2.13;;;;;;;;;;5023530;28;20081;-72
2023/01/20 10:35:16;;;;;;;5.72;2.15;;;;;;;;;;5024044;28;20383;-73
2023/01/20 10:37:41;;;;;;;5.10;2.00;;;;;;;;;;5005421;28;20042;-72
2023/01/20 10:40:24;;;;;;;5.60;2.13;;;;;;;;;;5022112;28;20084;-73
2023/01/20 10:42:56;;;;;;;3.30;1.95;;;;;;;;;;5021087;28;20045;-72
2023/01/20 10:45:35;;;;;;;10.38;2.08;;;;;;;;;;5036423;28;20105;-73
2023/01/20 10:48:12;;;;;;;5.50;1.70;;;;;;;;;;5024415;28;20045;-73
2023/01/20 10:50:40;;;;;;;6.45;1.48;;;;;;;;;;5023117;28;20104;-73
2023/01/20 10:53:08;;;;;;;2.83;1.05;;;;;;;;;;5024353;28;20438;-73
2023/01/20 10:56:02;;;;;;;3.30;1.42;;;;;;;;;;5026055;28;20080;-73
2023/01/20 10:58:32;;;;;;;2.60;1.30;;;;;;;;;;5010152;28;20053;-73
2023/01/20 11:01:01;;;;;;;10.43;1.58;;;;;;;;;;5023640;28;20037;-73
2023/01/20 11:03:31;;;;;;;4.97;1.67;;;;;;;;;;5035682;28;20045;-74
2023/01/20 11:05:57;;;;;;;6.80;1.45;;;;;;;;;;5024533;28;20033;-73
2023/01/20 11:08:25;;;;;;;4.45;1.30;;;;;;;;;;5030366;28;20087;-73
2023/01/20 11:11:14;;;;;;;3.22;1.10;;;;;;;;;;5031442;28;20143;-73
2023/01/20 11:13:40;;;;;;;10.75;1.58;;;;;;;;;;5014734;28;20054;-73
2023/01/20 11:16:13;;;;;;;3.90;1.58;;;;;;;;;;5021615;28;20034;-73
2023/01/20 11:18:38;;;;;;;4.30;1.42;;;;;;;;;;5023507;28;20030;-72
2023/01/20 11:21:08;;;;;;;11.85;1.70;;;;;;;;;;5021383;28;20041;-73
2023/01/20 11:23:37;;;;;;;6.07;1.52;;;;;;;;;;5017455;28;20045;-73
2023/01/20 11:26:23;;;;;;;2.97;1.27;;;;;;;;;;5021510;28;20034;-73
2023/01/20 11:28:57;;;;;;;7.50;1.00;;;;;;;;;;5015579;28;20458;-73
2023/01/20 11:31:34;;;;;;;;;;;;;;;;;;5021447;28;20438;-73
2023/01/20 11:34:01;;;;;;;7.03;1.35;;;;;;;;;;5023551;28;20016;-73
2023/01/20 11:36:27;;;;;;;9.13;1.27;;;;;;;;;;5019987;28;20041;-73
2023/01/20 11:38:55;;;;;;;12.07;1.67;;;;;;;;;;5015010;28;20045;-73
2023/01/20 11:41:21;;;;;;;8.27;1.48;;;;;;;;;;5020071;28;20105;-73
2023/01/20 11:43:48;;;;;;;5.85;2.33;;;;;;;;;;5018678;28;20386;-73
2023/01/20 11:46:15;;;;;;;2.38;1.15;;;;;;;;;;5017086;28;20510;-72
2023/01/20 11:48:41;;;;;;;5.90;1.85;;;;;;;;;;5020187;28;20033;-73
2023/01/20 11:51:24;;;;;;;4.30;1.60;;;;;;;;;;5011444;28;20182;-76
2023/01/20 11:53:50;;;;;;;2.58;1.30;;;;;;;;;;5013718;28;20073;-73
2023/01/20 11:56:20;;;;;;;3.33;1.27;;;;;;;;;;5015598;28;20029;-74
2023/01/20 11:58:50;;;;;;;5.10;1.77;;;;;;;;;;5006172;28;20417;-73
2023/01/20 12:01:25;;;;;;;4.38;1.45;;;;;;;;;;5021089;28;20100;-74
2023/01/20 12:04:18;;;;;;;8.10;1.50;;;;;;;;;;5010991;28;20045;-73
2023/01/20 12:07:04;;;;;;;7.47;1.40;;;;;;;;;;5022338;28;20037;-75
2023/01/20 12:09:39;;;;;;;1.90;1.23;;;;;;;;;;5011639;28;20291;-73
2023/01/20 12:12:27;;;;;;;3.60;1.02;;;;;;;;;;5011257;28;20041;-73
2023/01/20 12:15:10;;;;;;;6.18;1.70;;;;;;;;;;5010726;28;20037;-73
2023/01/20 12:17:54;;;;;;;7.35;1.50;;;;;;;;;;5013191;28;20144;-72
2023/01/20 12:20:41;;;;;;;5.40;1.17;;;;;;;;;;5018147;28;20033;-73
2023/01/20 12:23:13;;;;;;;7.53;1.42;;;;;;;;;;5017491;28;20077;-73
2023/01/20 12:26:05;;;;;;;4.65;1.25;;;;;;;;;;5013678;28;20037;-73
2023/01/20 12:28:50;;;;;;;4.60;1.65;;;;;;;;;;5010121;28;20482;-73
2023/01/20 12:31:19;;;;;;;7.00;1.58;;;;;;;;;;5016045;28;20042;-73
2023/01/20 12:34:34;;;;;;;3.53;1.20;;;;;;;;;;5016231;28;20120;-73
2023/01/20 12:36:59;;;;;;;5.55;1.33;;;;;;;;;;4970098;28;20042;-73
2023/01/20 12:39:27;;;;;;;5.10;1.25;;;;;;;;;;4965230;28;20050;-73
2023/01/20 12:42:04;;;;;;;8.35;1.40;;;;;;;;;;4980366;28;20060;-73
2023/01/20 12:44:41;;;;;;;3.45;0.80;;;;;;;;;;5003232;28;20402;-73
2023/01/20 12:47:27;;;;;;;6.28;1.30;;;;;;;;;;5011900;28;20092;-73
2023/01/20 12:49:52;;;;;;;2.97;0.90;;;;;;;;;;5025456;28;20129;-74
2023/01/20 12:52:26;;;;;;;4.10;1.00;;;;;;;;;;5024252;28;20125;-73
2023/01/20 12:55:16;;;;;;;10.85;1.45;;;;;;;;;;5016717;28;20121;-73
2023/01/20 12:58:02;;;;;;;7.50;1.00;;;;;;;;;;5020278;28;20064;-73
2023/01/20 13:00:43;;;;;;;7.55;1.00;;;;;;;;;;5016929;28;20067;-74
2023/01/20 13:03:30;;;;;;;8.40;1.25;;;;;;;;;;5018584;28;20044;-73
2023/01/20 13:06:14;;;;;;;5.57;1.25;;;;;;;;;;5025043;28;20103;-73
2023/01/20 13:08:48;;;;;;;4.95;1.20;;;;;;;;;;5018246;28;20500;-73
2023/01/20 13:11:29;;;;;;;5.50;0.95;;;;;;;;;;5020259;28;20034;-73
2023/01/20 13:14:23;;;;;;;6.85;1.25;;;;;;;;;;5025350;28;20085;-74
2023/01/20 13:17:09;;;;;;;6.72;1.40;;;;;;;;;;5010170;28;20053;-73
2023/01/20 13:19:40;;;;;;;4.63;0.90;;;;;;;;;;5014537;28;20037;-74
2023/01/20 13:22:16;;;;;;;2.35;0.90;;;;;;;;;;5015859;28;20040;-73
2023/01/20 13:24:44;;;;;;;2.50;1.02;;;;;;;;;;5003992;28;20087;-73
2023/01/20 13:27:12;;;;;;;3.97;0.93;;;;;;;;;;5024340;28;20081;-73
2023/01/20 13:29:50;;;;;;;2.95;0.85;;;;;;;;;;5026474;28;20049;-73
2023/01/20 13:32:24;;;;;;;8.48;0.88;;;;;;;;;;5027718;28;20456;-73
2023/01/20 13:34:50;;;;;;;5.55;1.10;;;;;;;;;;5026884;28;20124;-73
2023/01/20 13:37:15;;;;;;;4.65;1.00;;;;;;;;;;5016744;28;20108;-73
2023/01/20 13:39:42;;;;;;;3.30;0.95;;;;;;;;;;5020356;28;20513;-73
2023/01/20 13:42:36;;;;;;;2.38;0.75;;;;;;;;;;5023231;28;20034;-73
2023/01/20 13:45:11;;;;;;;2.85;0.82;;;;;;;;;;5021612;28;20914;-73
2023/01/20 13:47:56;;;;;;;4.05;0.90;;;;;;;;;;5027102;28;20037;-73
2023/01/20 13:50:37;;;;;;;4.28;1.08;;;;;;;;;;5019538;28;20048;-73
2023/01/20 13:53:12;;;;;;;1.83;0.90;;;;;;;;;;5026227;28;20033;-73
2023/01/20 13:55:40;;;;;;;4.07;1.00;;;;;;;;;;5028053;28;20867;-75
2023/01/20 13:58:13;;;;;;;5.53;1.35;;;;;;;;;;5029842;28;20132;-72
2023/01/20 14:00:39;;;;;;;5.30;0.88;;;;;;;;;;5012569;28;20492;-73
2023/01/20 14:03:22;;;;;;;5.43;0.90;;;;;;;;;;5023694;28;20046;-73
2023/01/20 14:05:49;;;;;;;4.10;0.93;;;;;;;;;;5026780;28;20564;-73
2023/01/20 14:08:15;;;;;;;1.88;0.80;;;;;;;;;;5024150;28;20064;-73
2023/01/20 14:10:41;;;;;;;1.67;0.60;;;;;;;;;;5025648;28;20057;-73
2023/01/20 14:13:24;;;;;;;5.95;1.02;;;;;;;;;;5025159;28;20488;-73
2023/01/20 14:15:54;;;;;;;3.85;1.13;;;;;;;;;;5012822;28;20037;-73
2023/01/20 14:18:24;;;;;;;3.58;1.15;;;;;;;;;;5040255;28;20077;-73
2023/01/20 14:21:22;;;;;;;7.68;1.20;;;;;;;;;;5021643;28;20045;-73
2023/01/20 14:23:48;;;;;;;4.38;1.20;;;;;;;;;;5028437;28;20052;-73
2023/01/20 14:26:22;;;;;;;3.13;0.98;;;;;;;;;;5011576;28;20045;-73
2023/01/20 14:28:53;;;;;;;5.93;1.23;;;;;;;;;;5016697;28;20045;-73
2023/01/20 14:31:35;;;;;;;8.07;1.15;;;;;;;;;;5022362;28;20122;-75
2023/01/20 14:34:31;;;;;;;7.93;1.27;;;;;;;;;;5025080;28;20037;-73
2023/01/20 14:36:58;;;;;;;4.15;1.25;;;;;;;;;;5025763;28;20041;-73
2023/01/20 14:39:27;;;;;;;3.67;1.10;;;;;;;;;;5035073;28;20378;-74
2023/01/20 14:41:55;;;;;;;8.32;1.10;;;;;;;;;;5023030;28;20049;-74
2023/01/20 14:44:33;;;;;;;1.83;0.90;;;;;;;;;;5014457;28;20036;-73
2023/01/20 14:47:01;;;;;;;3.72;1.02;;;;;;;;;;5030170;28;20044;-73
2023/01/20 14:49:35;;;;;;;1.45;0.90;;;;;;;;;;5029231;28;20175;-73
2023/01/20 14:52:00;;;;;;;3.35;1.10;;;;;;;;;;5026863;28;20497;-74
2023/01/20 14:54:36;;;;;;;2.38;0.88;;;;;;;;;;5027303;28;20045;-73
2023/01/20 14:57:25;;;;;;;9.27;1.60;;;;;;;;;;5029728;28;20041;-74
2023/01/20 15:00:09;;;;;;;1.92;0.75;;;;;;;;;;5024274;28;20022;-73
2023/01/20 15:02:35;;;;;;;4.55;1.02;;;;;;;;;;5014561;28;20037;-73
2023/01/20 15:05:16;;;;;;;2.25;1.13;;;;;;;;;;5014669;28;20132;-74
2023/01/20 15:07:41;;;;;;;4.40;1.10;;;;;;;;;;5020041;28;20114;-74
2023/01/20 15:10:10;;;;;;;3.75;0.80;;;;;;;;;;5015293;28;20446;-73
2023/01/20 15:12:45;;;;;;;1.35;0.73;;;;;;;;;;5023241;28;20039;-76